createdAt,value
2023-03-04T00:00:32.286Z,5.31
2023-03-04T00:02:59.933Z,5.31
2023-03-04T00:05:27.584Z,5.30
2023-03-04T00:07:55.010Z,5.29
2023-03-04T00:10:22.496Z,5.30
2023-03-04T00:12:50.122Z,5.30
2023-03-04T00:15:17.569Z,5.30
2023-03-04T00:17:46.196Z,5.31
2023-03-04T00:20:14.375Z,5.28
2023-03-04T00:22:41.892Z,5.28
2023-03-04T00:25:09.761Z,5.27
2023-03-04T00:27:37.398Z,5.25
2023-03-04T00:30:07.253Z,5.24
2023-03-04T00:32:34.739Z,5.26
2023-03-04T00:35:06.001Z,5.27
2023-03-04T00:37:33.569Z,5.27
2023-03-04T00:40:01.212Z,5.29
2023-03-04T00:42:28.706Z,5.28
2023-03-04T00:44:56.390Z,5.27
2023-03-04T00:47:23.935Z,5.26
2023-03-04T00:49:51.361Z,5.26
2023-03-04T00:52:18.928Z,5.24
2023-03-04T00:54:46.438Z,5.24
2023-03-04T00:57:14.132Z,5.23
2023-03-04T00:59:43.757Z,5.24
2023-03-04T01:02:11.305Z,5.23
2023-03-04T01:04:39.125Z,5.23
2023-03-04T01:07:06.654Z,5.25
2023-03-04T01:09:34.649Z,5.26
2023-03-04T01:12:04.037Z,5.26
2023-03-04T01:14:31.811Z,5.26
2023-03-04T01:16:59.467Z,5.27
2023-03-04T01:19:27.166Z,5.28
2023-03-04T01:21:54.852Z,5.26
2023-03-04T01:24:22.989Z,5.25
2023-03-04T01:26:50.648Z,5.25
2023-03-04T01:29:18.191Z,5.25
2023-03-04T01:31:45.637Z,5.26
2023-03-04T01:34:13.693Z,5.26
2023-03-04T01:36:41.281Z,5.24
2023-03-04T01:39:08.989Z,5.23
2023-03-04T01:41:36.588Z,5.23
2023-03-04T01:44:04.513Z,5.22
2023-03-04T01:46:33.050Z,5.22
2023-03-04T01:49:00.843Z,5.21
2023-03-04T01:51:28.399Z,5.19
2023-03-04T01:53:56.413Z,5.20
2023-03-04T01:56:36.729Z,5.20
2023-03-04T01:59:10.781Z,5.18
2023-03-04T02:01:40.930Z,5.16
2023-03-04T02:04:09.843Z,5.16
2023-03-04T02:06:40.339Z,5.16
2023-03-04T02:09:09.092Z,5.16
2023-03-04T02:11:38.841Z,5.17
2023-03-04T02:14:07.467Z,5.16
2023-03-04T02:16:35.362Z,5.17
2023-03-04T02:19:09.707Z,5.16
2023-03-04T02:21:37.316Z,5.16
2023-03-04T02:24:36.980Z,5.18
2023-03-04T02:27:05.416Z,5.16
2023-03-04T02:29:33.067Z,5.16
2023-03-04T02:32:00.964Z,5.16
2023-03-04T02:34:35.573Z,5.17
2023-03-04T02:37:04.550Z,5.16
2023-03-04T02:39:41.026Z,5.18
2023-03-04T02:42:09.273Z,5.15
2023-03-04T02:44:46.230Z,5.15
2023-03-04T02:47:20.578Z,5.14
2023-03-04T02:49:49.824Z,5.12
2023-03-04T02:52:26.438Z,5.12
2023-03-04T02:54:53.924Z,5.12
2023-03-04T02:57:21.483Z,5.13
2023-03-04T02:59:53.605Z,5.13
2023-03-04T03:02:24.221Z,5.14
2023-03-04T03:04:52.250Z,5.14
2023-03-04T03:07:21.506Z,5.15
2023-03-04T03:09:49.972Z,5.14
2023-03-04T03:12:18.870Z,5.13
2023-03-04T03:14:46.677Z,5.14
2023-03-04T03:17:17.841Z,5.13
2023-03-04T03:19:45.383Z,5.13
2023-03-04T03:22:13.283Z,5.15
2023-03-04T03:24:40.750Z,5.14
2023-03-04T03:27:08.243Z,5.13
2023-03-04T03:29:36.013Z,5.11
2023-03-04T03:32:03.693Z,5.11
2023-03-04T03:34:31.262Z,5.10
2023-03-04T03:36:58.821Z,5.10
2023-03-04T03:39:26.366Z,5.11
2023-03-04T03:41:54.011Z,5.11
2023-03-04T03:44:21.466Z,5.10
2023-03-04T03:46:48.875Z,5.09
2023-03-04T03:49:17.251Z,5.10
2023-03-04T03:51:44.824Z,5.09
2023-03-04T03:54:12.430Z,5.10
2023-03-04T03:56:40.050Z,5.11
2023-03-04T03:59:07.657Z,5.11
2023-03-04T04:01:35.194Z,5.09
2023-03-04T04:04:03.091Z,5.11
2023-03-04T04:06:30.569Z,5.10
2023-03-04T04:08:58.120Z,5.12
2023-03-04T04:11:25.813Z,5.12
2023-03-04T04:13:53.296Z,5.12
2023-03-04T04:16:20.862Z,5.12
2023-03-04T04:18:48.564Z,5.13
2023-03-04T04:21:16.130Z,5.12
2023-03-04T04:23:43.614Z,5.14
2023-03-04T04:26:11.164Z,5.14
2023-03-04T04:28:38.636Z,5.14
2023-03-04T04:31:09.853Z,5.15
2023-03-04T04:33:37.767Z,5.15
2023-03-04T04:36:06.226Z,5.14
2023-03-04T04:38:33.703Z,5.13
2023-03-04T04:41:01.237Z,5.14
2023-03-04T04:43:28.908Z,5.14
2023-03-04T04:45:59.069Z,5.14
2023-03-04T04:48:26.599Z,5.15
2023-03-04T04:50:56.502Z,5.14
2023-03-04T04:53:24.062Z,5.14
2023-03-04T04:55:51.778Z,5.15
2023-03-04T04:58:19.215Z,5.15
2023-03-04T05:00:46.747Z,5.16
2023-03-04T05:03:14.302Z,5.14
2023-03-04T05:05:42.554Z,5.14
2023-03-04T05:08:09.985Z,5.14
2023-03-04T05:10:38.055Z,5.13
2023-03-04T05:13:05.645Z,5.11
2023-03-04T05:15:33.113Z,5.09
2023-03-04T05:18:00.662Z,5.08
2023-03-04T05:20:28.371Z,5.07
2023-03-04T05:22:56.134Z,5.06
2023-03-04T05:25:23.544Z,5.05
2023-03-04T05:27:51.122Z,5.06
2023-03-04T05:30:18.613Z,5.06
2023-03-04T05:32:46.242Z,5.05
2023-03-04T05:35:13.954Z,5.04
2023-03-04T05:37:41.373Z,5.04
2023-03-04T05:40:10.085Z,5.03
2023-03-04T05:42:38.615Z,5.04
2023-03-04T05:45:07.064Z,5.01
2023-03-04T05:47:34.512Z,4.99
2023-03-04T05:50:02.177Z,4.98
2023-03-04T05:52:29.699Z,4.97
2023-03-04T05:54:57.164Z,4.98
2023-03-04T05:57:24.872Z,4.98
2023-03-04T05:59:52.429Z,4.98
2023-03-04T06:02:20.129Z,4.98
2023-03-04T06:04:47.865Z,4.99
2023-03-04T06:07:15.766Z,4.99
2023-03-04T06:09:45.187Z,4.99
2023-03-04T06:12:13.338Z,4.99
2023-03-04T06:14:40.861Z,4.98
2023-03-04T06:17:08.399Z,4.99
2023-03-04T06:19:38.018Z,4.99
2023-03-04T06:22:05.824Z,4.98
2023-03-04T06:24:33.296Z,4.99
2023-03-04T06:27:01.444Z,4.98
2023-03-04T06:29:29.223Z,4.99
2023-03-04T06:31:56.885Z,4.99
2023-03-04T06:34:24.546Z,5.00
2023-03-04T06:36:52.068Z,5.00
2023-03-04T06:39:19.861Z,5.00
2023-03-04T06:41:47.331Z,5.00
2023-03-04T06:44:14.775Z,5.01
2023-03-04T06:46:42.528Z,5.01
2023-03-04T06:49:10.491Z,5.02
2023-03-04T06:51:38.041Z,5.01
2023-03-04T06:54:05.823Z,5.03
2023-03-04T06:56:33.301Z,5.01
2023-03-04T06:59:00.845Z,5.02
2023-03-04T07:01:29.833Z,5.02
2023-03-04T07:03:57.938Z,5.02
2023-03-04T07:06:28.728Z,5.03
2023-03-04T07:08:57.305Z,5.04
2023-03-04T07:11:25.510Z,5.06
2023-03-04T07:13:53.456Z,5.07
2023-03-04T07:16:23.615Z,5.09
2023-03-04T07:18:51.258Z,5.10
2023-03-04T07:21:19.630Z,5.13
2023-03-04T07:23:47.583Z,5.13
2023-03-04T07:26:15.165Z,5.15
2023-03-04T07:28:43.455Z,5.17
2023-03-04T07:31:30.586Z,5.21
2023-03-04T07:34:01.899Z,5.20
2023-03-04T07:36:29.993Z,5.22
2023-03-04T07:38:57.917Z,5.25
2023-03-04T07:41:28.208Z,5.29
2023-03-04T07:43:59.295Z,5.33
2023-03-04T07:46:26.978Z,5.33
2023-03-04T07:48:56.376Z,5.35
2023-03-04T07:51:26.861Z,5.38
2023-03-04T07:53:58.775Z,5.40
2023-03-04T07:56:30.683Z,5.42
2023-03-04T07:58:59.871Z,5.42
2023-03-04T08:01:32.536Z,5.44
2023-03-04T08:04:00.947Z,5.46
2023-03-04T08:06:29.550Z,5.50
2023-03-04T08:09:00.671Z,5.54
2023-03-04T08:11:30.795Z,5.58
2023-03-04T08:13:59.053Z,5.62
2023-03-04T08:16:26.867Z,5.67
2023-03-04T08:19:00.592Z,5.75
2023-03-04T08:21:29.044Z,5.85
2023-03-04T08:24:02.341Z,5.95
2023-03-04T08:26:35.541Z,6.04
2023-03-04T08:29:05.617Z,6.10
2023-03-04T08:31:34.105Z,6.12
2023-03-04T08:34:04.164Z,6.16
2023-03-04T08:36:31.754Z,6.16
2023-03-04T08:38:59.241Z,6.17
2023-03-04T08:41:27.569Z,6.20
2023-03-04T08:43:55.312Z,6.25
2023-03-04T08:46:22.911Z,6.31
2023-03-04T08:48:50.488Z,6.38
2023-03-04T08:51:18.597Z,6.45
2023-03-04T08:53:46.809Z,6.54
2023-03-04T08:56:15.354Z,6.60
2023-03-04T08:58:43.007Z,6.68
2023-03-04T09:01:13.457Z,6.76
2023-03-04T09:03:42.599Z,6.82
2023-03-04T09:06:15.082Z,6.89
2023-03-04T09:08:44.039Z,6.97
2023-03-04T09:11:12.894Z,7.04
2023-03-04T09:13:40.739Z,7.10
2023-03-04T09:16:14.486Z,7.15
2023-03-04T09:18:43.146Z,7.18
2023-03-04T09:21:11.466Z,7.24
2023-03-04T09:23:39.690Z,7.30
2023-03-04T09:26:25.339Z,7.37
2023-03-04T09:28:58.696Z,7.39
2023-03-04T09:31:28.559Z,7.42
2023-03-04T09:33:59.086Z,7.45
2023-03-04T09:36:26.846Z,7.48
2023-03-04T09:38:54.565Z,7.54
2023-03-04T09:41:29.509Z,7.56
2023-03-04T09:43:58.164Z,7.56
2023-03-04T09:46:39.022Z,7.61
2023-03-04T09:49:07.492Z,7.66
2023-03-04T09:51:51.184Z,7.79
2023-03-04T09:54:50.566Z,7.81
2023-03-04T09:57:42.720Z,7.75
2023-03-04T10:00:20.098Z,7.65
2023-03-04T10:03:14.156Z,7.58
2023-03-04T10:06:01.158Z,7.52
2023-03-04T10:09:11.484Z,7.53
2023-03-04T10:11:49.067Z,7.51
2023-03-04T10:14:22.459Z,7.48
2023-03-04T10:17:13.275Z,7.44
2023-03-04T10:19:52.894Z,7.41
2023-03-04T10:22:45.992Z,7.38
2023-03-04T10:25:30.782Z,7.34
2023-03-04T10:28:13.312Z,7.35
2023-03-04T10:30:50.019Z,7.37
2023-03-04T10:33:31.044Z,7.39
2023-03-04T10:36:02.985Z,7.45
2023-03-04T10:38:41.793Z,7.51
2023-03-04T10:41:22.601Z,7.55
2023-03-04T10:44:18.281Z,7.62
2023-03-04T10:46:50.358Z,7.70
2023-03-04T10:49:19.697Z,7.76
2023-03-04T10:52:26.619Z,7.79
2023-03-04T10:54:57.450Z,7.79
2023-03-04T10:57:40.973Z,7.89
2023-03-04T11:00:17.841Z,7.97
2023-03-04T11:02:50.008Z,8.01
2023-03-04T11:05:18.943Z,8.07
2023-03-04T11:08:00.694Z,8.18
2023-03-04T11:10:37.177Z,8.32
2023-03-04T11:13:24.564Z,8.43
2023-03-04T11:15:55.205Z,8.44
2023-03-04T11:18:30.593Z,8.42
2023-03-04T11:21:00.818Z,8.45
2023-03-04T11:23:39.790Z,8.51
2023-03-04T11:26:24.150Z,8.52
2023-03-04T11:29:00.828Z,8.47
2023-03-04T11:31:42.495Z,8.43
2023-03-04T11:34:42.274Z,8.40
2023-03-04T11:38:00.702Z,8.33
2023-03-04T11:40:56.977Z,8.29
2023-03-04T11:43:47.114Z,8.34
2023-03-04T11:46:33.429Z,8.44
2023-03-04T11:49:31.918Z,8.51
2023-03-04T11:52:21.465Z,8.53
2023-03-04T11:55:06.204Z,8.46
2023-03-04T11:57:51.847Z,8.40
2023-03-04T12:00:39.035Z,8.34
2023-03-04T12:03:44.307Z,8.28
2023-03-04T12:06:33.084Z,8.22
2023-03-04T12:09:24.550Z,8.21
2023-03-04T12:12:20.804Z,8.23
2023-03-04T12:15:10.925Z,8.32
2023-03-04T12:17:44.712Z,8.42
2023-03-04T12:20:44.844Z,8.53
2023-03-04T12:23:41.804Z,8.58
2023-03-04T12:26:39.528Z,8.60
2023-03-04T12:29:32.983Z,8.62
2023-03-04T12:33:07.101Z,8.65
2023-03-04T12:36:05.525Z,8.68
2023-03-04T12:38:57.120Z,8.76
2023-03-04T12:41:59.672Z,8.82
2023-03-04T12:44:48.021Z,8.84
2023-03-04T12:47:38.932Z,8.85
2023-03-04T12:50:38.159Z,8.79
2023-03-04T12:53:22.830Z,8.71
2023-03-04T12:55:52.288Z,8.64
2023-03-04T12:58:28.610Z,8.61
2023-03-04T13:01:27.488Z,8.56
2023-03-04T13:04:23.288Z,8.48
2023-03-04T13:07:09.664Z,8.39
2023-03-04T13:09:55.096Z,8.31
2023-03-04T13:12:23.969Z,8.18
2023-03-04T13:15:26.223Z,8.05
2023-03-04T13:17:58.156Z,7.90
2023-03-04T13:20:31.641Z,7.79
2023-03-04T13:23:01.440Z,7.77
2023-03-04T13:25:32.114Z,7.82
2023-03-04T13:28:05.301Z,7.90
2023-03-04T13:30:34.474Z,8.02
2023-03-04T13:33:09.338Z,8.16
2023-03-04T13:35:48.932Z,8.29
2023-03-04T13:38:47.692Z,8.40
2023-03-04T13:41:50.915Z,8.53
2023-03-04T13:44:57.906Z,8.65
2023-03-04T13:47:45.411Z,8.80
2023-03-04T13:50:28.164Z,8.92
2023-03-04T13:53:30.764Z,8.90
2023-03-04T13:56:22.033Z,8.84
2023-03-04T13:59:01.520Z,8.77
2023-03-04T14:01:32.654Z,8.73
2023-03-04T14:04:10.632Z,8.66
2023-03-04T14:06:44.170Z,8.62
2023-03-04T14:09:22.194Z,8.57
2023-03-04T14:11:54.116Z,8.56
2023-03-04T14:14:30.853Z,8.53
2023-03-04T14:17:06.554Z,8.53
2023-03-04T14:19:44.075Z,8.61
2023-03-04T14:22:31.038Z,8.70
2023-03-04T14:25:19.186Z,8.77
2023-03-04T14:27:47.897Z,8.83
2023-03-04T14:30:40.939Z,8.88
2023-03-04T14:33:18.915Z,8.90
2023-03-04T14:35:49.786Z,8.91
2023-03-04T14:38:32.012Z,8.92
2023-03-04T14:41:11.375Z,8.93
2023-03-04T14:44:14.796Z,8.94
2023-03-04T14:47:06.555Z,8.93
2023-03-04T14:49:37.185Z,8.90
2023-03-04T14:52:25.808Z,8.84
2023-03-04T14:55:28.848Z,8.70
2023-03-04T14:58:21.564Z,8.53
2023-03-04T15:01:15.587Z,8.38
2023-03-04T15:04:08.262Z,8.29
2023-03-04T15:06:48.371Z,8.21
2023-03-04T15:09:27.078Z,8.15
2023-03-04T15:12:06.162Z,8.13
2023-03-04T15:14:54.977Z,8.11
2023-03-04T15:17:38.817Z,8.06
2023-03-04T15:20:06.183Z,7.98
2023-03-04T15:22:53.047Z,7.90
2023-03-04T15:25:21.198Z,7.82
2023-03-04T15:27:50.751Z,7.76
2023-03-04T15:30:27.527Z,7.71
2023-03-04T15:32:58.799Z,7.65
2023-03-04T15:35:33.230Z,7.62
2023-03-04T15:38:01.493Z,7.61
2023-03-04T15:40:41.884Z,7.62
2023-03-04T15:43:18.576Z,7.60
2023-03-04T15:45:49.761Z,7.59
2023-03-04T15:48:19.938Z,7.58
2023-03-04T15:50:58.481Z,7.57
2023-03-04T15:53:33.696Z,7.53
2023-03-04T15:56:03.727Z,7.48
2023-03-04T15:58:34.985Z,7.42
2023-03-04T16:01:03.772Z,7.36
2023-03-04T16:03:31.670Z,7.32
2023-03-04T16:05:59.331Z,7.30
2023-03-04T16:08:26.842Z,7.28
2023-03-04T16:10:54.837Z,7.29
2023-03-04T16:13:24.214Z,7.29
2023-03-04T16:15:53.338Z,7.27
2023-03-04T16:18:21.555Z,7.23
2023-03-04T16:20:51.429Z,7.20
2023-03-04T16:23:24.556Z,7.18
2023-03-04T16:25:56.950Z,7.16
2023-03-04T16:28:24.531Z,7.14
2023-03-04T16:30:52.205Z,7.12
2023-03-04T16:33:19.893Z,7.10
2023-03-04T16:35:47.757Z,7.08
2023-03-04T16:38:28.172Z,7.07
2023-03-04T16:40:57.897Z,7.03
2023-03-04T16:43:25.993Z,7.00
2023-03-04T16:45:53.599Z,6.98
2023-03-04T16:48:21.431Z,6.97
2023-03-04T16:50:49.171Z,6.96
2023-03-04T16:53:38.381Z,6.94
2023-03-04T16:56:12.741Z,6.90
2023-03-04T16:58:41.411Z,6.90
2023-03-04T17:01:21.655Z,6.91
2023-03-04T17:03:49.244Z,6.88
2023-03-04T17:06:17.076Z,6.84
2023-03-04T17:08:44.999Z,6.80
2023-03-04T17:11:22.745Z,6.78
2023-03-04T17:13:51.463Z,6.74
2023-03-04T17:16:19.235Z,6.70
2023-03-04T17:18:46.940Z,6.66
2023-03-04T17:21:23.727Z,6.62
2023-03-04T17:23:53.049Z,6.60
2023-03-04T17:26:22.572Z,6.58
2023-03-04T17:28:51.552Z,6.57
2023-03-04T17:31:21.000Z,6.56
2023-03-04T17:33:49.606Z,6.54
2023-03-04T17:36:19.536Z,6.52
2023-03-04T17:38:49.584Z,6.50
2023-03-04T17:41:18.736Z,6.45
2023-03-04T17:43:50.207Z,6.43
2023-03-04T17:46:24.402Z,6.43
2023-03-04T17:48:56.126Z,6.40
2023-03-04T17:51:35.586Z,6.34
2023-03-04T17:54:05.730Z,6.32
2023-03-04T17:56:35.328Z,6.33
2023-03-04T17:59:08.747Z,6.34
2023-03-04T18:01:36.264Z,6.34
2023-03-04T18:04:04.259Z,6.32
2023-03-04T18:06:31.986Z,6.31
2023-03-04T18:08:59.628Z,6.29
2023-03-04T18:11:27.975Z,6.28
2023-03-04T18:13:56.695Z,6.27
2023-03-04T18:16:26.965Z,6.25
2023-03-04T18:18:57.903Z,6.24
2023-03-04T18:21:29.169Z,6.23
2023-03-04T18:23:57.914Z,6.21
2023-03-04T18:26:27.639Z,6.21
2023-03-04T18:28:56.677Z,6.22
2023-03-04T18:31:31.597Z,6.21
2023-03-04T18:34:04.053Z,6.21
2023-03-04T18:36:33.565Z,6.19
2023-03-04T18:39:04.355Z,6.20
2023-03-04T18:41:32.206Z,6.20
2023-03-04T18:43:59.774Z,6.17
2023-03-04T18:46:40.243Z,6.18
2023-03-04T18:49:10.059Z,6.16
2023-03-04T18:51:38.765Z,6.16
2023-03-04T18:54:06.569Z,6.16
2023-03-04T18:56:52.820Z,6.15
2023-03-04T18:59:31.463Z,6.12
2023-03-04T19:02:06.787Z,6.10
2023-03-04T19:04:34.341Z,6.08
2023-03-04T19:07:01.827Z,6.06
2023-03-04T19:09:29.497Z,6.02
2023-03-04T19:11:57.232Z,5.99
2023-03-04T19:14:24.891Z,5.97
2023-03-04T19:16:52.403Z,5.95
2023-03-04T19:19:23.048Z,5.90
2023-03-04T19:21:50.636Z,5.87
2023-03-04T19:24:18.101Z,5.84
2023-03-04T19:26:45.890Z,5.80
2023-03-04T19:29:13.599Z,5.76
2023-03-04T19:31:41.767Z,5.72
2023-03-04T19:34:09.968Z,5.69
2023-03-04T19:36:38.293Z,5.67
2023-03-04T19:39:07.911Z,5.66
2023-03-04T19:41:36.090Z,5.62
2023-03-04T19:44:03.629Z,5.61
2023-03-04T19:46:32.241Z,5.59
2023-03-04T19:49:03.169Z,5.59
2023-03-04T19:51:32.736Z,5.56
2023-03-04T19:54:00.449Z,5.55
2023-03-04T19:56:28.692Z,5.54
2023-03-04T19:58:57.080Z,5.51
2023-03-04T20:01:34.554Z,5.50
2023-03-04T20:04:15.424Z,5.49
2023-03-04T20:06:46.308Z,5.47
2023-03-04T20:09:17.380Z,5.45
2023-03-04T20:11:57.763Z,5.43
2023-03-04T20:14:27.809Z,5.41
2023-03-04T20:17:03.063Z,5.42
2023-03-04T20:19:33.897Z,5.38
2023-03-04T20:22:02.762Z,5.37
2023-03-04T20:24:30.434Z,5.37
2023-03-04T20:26:58.298Z,5.37
2023-03-04T20:29:27.437Z,5.36
2023-03-04T20:31:55.531Z,5.37
2023-03-04T20:34:23.876Z,5.36
2023-03-04T20:36:51.416Z,5.33
2023-03-04T20:39:28.831Z,5.32
2023-03-04T20:41:58.878Z,5.30
2023-03-04T20:44:27.452Z,5.30
2023-03-04T20:46:55.016Z,5.30
2023-03-04T20:49:28.133Z,5.28
2023-03-04T20:52:06.278Z,5.28
2023-03-04T20:54:37.432Z,5.26
2023-03-04T20:57:07.923Z,5.22
2023-03-04T20:59:36.333Z,5.23
2023-03-04T21:02:06.138Z,5.23
2023-03-04T21:04:34.438Z,5.22
2023-03-04T21:07:02.319Z,5.19
2023-03-04T21:09:30.232Z,5.21
2023-03-04T21:11:59.785Z,5.19
2023-03-04T21:14:31.181Z,5.20
2023-03-04T21:17:03.805Z,5.20
2023-03-04T21:19:36.378Z,5.18
2023-03-04T21:22:04.667Z,5.19
2023-03-04T21:24:35.886Z,5.19
2023-03-04T21:27:04.612Z,5.18
2023-03-04T21:29:32.660Z,5.18
2023-03-04T21:32:23.272Z,5.17
2023-03-04T21:34:54.800Z,5.16
2023-03-04T21:37:25.102Z,5.14
2023-03-04T21:39:54.388Z,5.12
2023-03-04T21:42:22.288Z,5.10
2023-03-04T21:44:51.624Z,5.10
2023-03-04T21:47:21.714Z,5.09
2023-03-04T21:49:49.682Z,5.09
2023-03-04T21:52:21.100Z,5.07
2023-03-04T21:54:49.532Z,5.04
2023-03-04T21:57:17.934Z,5.02
2023-03-04T21:59:45.553Z,5.01
2023-03-04T22:02:20.625Z,5.01
2023-03-04T22:04:48.843Z,5.00
2023-03-04T22:07:17.351Z,5.01
2023-03-04T22:09:44.985Z,5.00
2023-03-04T22:12:14.396Z,4.98
2023-03-04T22:14:42.169Z,4.96
2023-03-04T22:17:09.784Z,4.97
2023-03-04T22:19:37.365Z,4.96
2023-03-04T22:22:05.166Z,4.95
2023-03-04T22:24:32.595Z,4.94
2023-03-04T22:27:00.309Z,4.92
2023-03-04T22:29:28.163Z,4.91
2023-03-04T22:31:55.861Z,4.90
2023-03-04T22:34:23.420Z,4.89
2023-03-04T22:36:51.045Z,4.87
2023-03-04T22:39:23.104Z,4.87
2023-03-04T22:41:50.904Z,4.86
2023-03-04T22:44:19.002Z,4.85
2023-03-04T22:46:46.645Z,4.81
2023-03-04T22:49:14.932Z,4.79
2023-03-04T22:51:45.209Z,4.79
2023-03-04T22:54:17.511Z,4.78
2023-03-04T22:56:45.233Z,4.75
2023-03-04T22:59:13.763Z,4.74
2023-03-04T23:01:41.793Z,4.72
2023-03-04T23:04:09.382Z,4.72
2023-03-04T23:06:37.685Z,4.71
2023-03-04T23:09:06.230Z,4.70
2023-03-04T23:11:35.627Z,4.69
2023-03-04T23:14:07.296Z,4.66
2023-03-04T23:16:39.202Z,4.60
2023-03-04T23:19:08.287Z,4.57
2023-03-04T23:21:37.836Z,4.59
2023-03-04T23:24:07.922Z,4.60
2023-03-04T23:26:41.385Z,4.59
2023-03-04T23:29:13.760Z,4.60
2023-03-04T23:31:42.689Z,4.59
2023-03-04T23:34:11.308Z,4.57
2023-03-04T23:36:39.270Z,4.56
2023-03-04T23:39:07.581Z,4.56
2023-03-04T23:41:36.284Z,4.55
2023-03-04T23:44:04.705Z,4.52
2023-03-04T23:46:32.817Z,4.52
2023-03-04T23:49:00.573Z,4.52
2023-03-04T23:51:29.987Z,4.50
2023-03-04T23:53:58.197Z,4.49
2023-03-04T23:56:29.884Z,4.49
2023-03-04T23:58:58.756Z,4.41
